createdAt,value
2023-04-07T00:02:57.784Z,44
2023-04-07T00:08:16.408Z,44.1
2023-04-07T00:13:34.730Z,43.7
2023-04-07T00:18:52.852Z,44.6
2023-04-07T00:24:24.067Z,44.9
2023-04-07T00:29:49.279Z,43.9
2023-04-07T00:35:07.667Z,44.3
2023-04-07T00:40:26.062Z,44
2023-04-07T00:45:44.469Z,44
2023-04-07T00:51:02.604Z,44.9
2023-04-07T00:56:20.807Z,44.3
2023-04-07T01:01:39.497Z,44.6
2023-04-07T01:06:58.027Z,44.9
2023-04-07T01:12:16.434Z,44.1
2023-04-07T01:17:34.488Z,45
2023-04-07T01:22:52.476Z,44.8
2023-04-07T01:28:10.878Z,44.1
2023-04-07T01:33:29.409Z,44.3
2023-04-07T01:38:47.597Z,44.5
2023-04-07T01:44:06.074Z,44.4
2023-04-07T01:49:24.442Z,45.2
2023-04-07T01:54:42.809Z,44.1
2023-04-07T02:00:00.865Z,44.4
2023-04-07T02:05:19.277Z,45
2023-04-07T02:10:37.410Z,44.8
2023-04-07T02:15:56.019Z,44.7
2023-04-07T02:21:14.176Z,44.5
2023-04-07T02:26:35.309Z,44.3
2023-04-07T02:31:53.840Z,44.9
2023-04-07T02:37:12.453Z,44.6
2023-04-07T02:42:30.597Z,44.6
2023-04-07T02:47:49.134Z,44.5
2023-04-07T02:53:07.351Z,45.3
2023-04-07T02:58:25.693Z,44.7
2023-04-07T03:03:44.050Z,45.2
2023-04-07T03:09:02.731Z,45
2023-04-07T03:14:20.712Z,45.3
2023-04-07T03:19:39.395Z,45.6
2023-04-07T03:24:57.588Z,45.6
2023-04-07T03:30:16.071Z,44.9
2023-04-07T03:35:34.177Z,46.1
2023-04-07T03:40:52.542Z,45.1
2023-04-07T03:46:10.560Z,45.1
2023-04-07T03:51:13.399Z,44.6
2023-04-07T03:56:31.551Z,44.5
2023-04-07T04:01:50.316Z,45.2
2023-04-07T04:07:08.418Z,44.1
2023-04-07T04:12:26.528Z,45.9
2023-04-07T04:17:44.937Z,45.6
2023-04-07T04:23:03.392Z,45
2023-04-07T04:28:21.759Z,44.6
2023-04-07T04:33:24.499Z,45.6
2023-04-07T04:38:42.720Z,45.6
2023-04-07T04:44:01.065Z,45.8
2023-04-07T04:49:19.394Z,40.9
2023-04-07T04:54:38.037Z,37.1
2023-04-07T04:59:56.411Z,39.7
2023-04-07T05:05:15.356Z,41.4
2023-04-07T05:10:33.806Z,42
2023-04-07T05:15:52.662Z,41.6
2023-04-07T05:21:11.116Z,42.2
2023-04-07T05:26:29.450Z,42.3
2023-04-07T05:31:47.659Z,43.1
2023-04-07T05:37:06.055Z,42.3
2023-04-07T05:42:24.116Z,42.8
2023-04-07T05:47:42.624Z,42.7
2023-04-07T05:53:00.815Z,42.4
2023-04-07T05:58:19.160Z,43.5
2023-04-07T06:03:37.761Z,43.2
2023-04-07T06:08:56.277Z,43
2023-04-07T06:14:14.885Z,42.4
2023-04-07T06:19:32.956Z,43.5
2023-04-07T06:24:51.369Z,43.1
2023-04-07T06:30:09.990Z,43.1
2023-04-07T06:35:28.371Z,43
2023-04-07T06:40:48.038Z,43.3
2023-04-07T06:46:06.401Z,42.8
2023-04-07T06:51:24.573Z,42.9
2023-04-07T06:56:43.195Z,42.9
2023-04-07T07:02:02.311Z,43.5
2023-04-07T07:07:20.577Z,43.6
2023-04-07T07:12:39.002Z,43.7
2023-04-07T07:17:57.524Z,43.1
2023-04-07T07:23:15.718Z,43.1
2023-04-07T07:28:34.048Z,43.7
2023-04-07T07:33:52.270Z,42.9
2023-04-07T07:39:10.425Z,42.9
2023-04-07T07:44:32.919Z,43.1
2023-04-07T07:49:51.253Z,42.6
2023-04-07T07:55:09.420Z,42.8
2023-04-07T08:00:27.782Z,43.4
2023-04-07T08:05:46.474Z,43.4
2023-04-07T08:11:05.033Z,43.7
2023-04-07T08:16:23.217Z,42.7
2023-04-07T08:21:41.439Z,43.7
2023-04-07T08:26:59.794Z,43.2
2023-04-07T08:32:18.357Z,43.2
2023-04-07T08:37:36.786Z,43.5
2023-04-07T08:42:54.918Z,43
2023-04-07T08:48:13.037Z,43.3
2023-04-07T08:53:31.612Z,43.7
2023-04-07T08:58:49.801Z,43.7
2023-04-07T09:04:09.199Z,43.8
2023-04-07T09:09:27.330Z,42.9
2023-04-07T09:14:45.691Z,43
2023-04-07T09:20:03.938Z,43
2023-04-07T09:25:22.403Z,43.7
2023-04-07T09:30:40.578Z,43.4
2023-04-07T09:35:59.036Z,43
2023-04-07T09:41:17.767Z,42.7
2023-04-07T09:46:36.275Z,43.4
2023-04-07T09:51:38.812Z,43.6
2023-04-07T09:56:57.256Z,43
2023-04-07T10:02:15.525Z,43.7
2023-04-07T10:07:33.735Z,43.4
2023-04-07T10:12:52.347Z,43.2
2023-04-07T10:18:10.506Z,42.6
2023-04-07T10:23:28.864Z,42.6
2023-04-07T10:28:47.332Z,43.7
2023-04-07T10:34:05.854Z,43.4
2023-04-07T10:39:24.456Z,43.5
2023-04-07T10:44:43.339Z,43.4
2023-04-07T10:50:01.695Z,43.7
2023-04-07T10:55:20.025Z,42.9
2023-04-07T11:00:38.441Z,42.5
2023-04-07T11:05:56.637Z,42.7
2023-04-07T11:11:14.571Z,43.5
2023-04-07T11:16:33.323Z,42.6
2023-04-07T11:21:52.042Z,43.5
2023-04-07T11:27:17.340Z,42.7
2023-04-07T11:32:35.952Z,43.3
2023-04-07T11:37:54.164Z,42.7
2023-04-07T11:43:12.477Z,42.8
2023-04-07T11:48:32.678Z,43.3
2023-04-07T11:53:51.399Z,42.8
2023-04-07T11:59:09.521Z,42.8
2023-04-07T12:04:28.336Z,43.6
2023-04-07T12:09:46.564Z,43.6
2023-04-07T12:15:05.254Z,43.5
2023-04-07T12:20:23.700Z,43.5
2023-04-07T12:25:42.119Z,42.9
2023-04-07T12:31:00.516Z,43.3
2023-04-07T12:36:21.924Z,43.4
2023-04-07T12:41:40.666Z,43.5
2023-04-07T12:46:58.908Z,43.2
2023-04-07T12:52:17.574Z,42.6
2023-04-07T12:57:36.124Z,42.5
2023-04-07T13:02:54.935Z,43.5
2023-04-07T13:08:13.565Z,43.4
2023-04-07T13:13:31.970Z,43.6
2023-04-07T13:18:50.261Z,43.3
2023-04-07T13:23:53.078Z,43.4
2023-04-07T13:29:11.483Z,43.1
2023-04-07T13:34:32.727Z,42.7
2023-04-07T13:39:51.316Z,43.8
2023-04-07T13:45:09.661Z,42.6
2023-04-07T13:50:27.886Z,43
2023-04-07T13:55:46.330Z,42.3
2023-04-07T14:01:04.577Z,40.9
2023-04-07T14:06:23.182Z,38.6
2023-04-07T14:11:41.754Z,40.7
2023-04-07T14:16:59.954Z,41.3
2023-04-07T14:22:02.488Z,41
2023-04-07T14:27:21.301Z,42
2023-04-07T14:32:40.186Z,41.9
2023-04-07T14:37:58.827Z,42
2023-04-07T14:43:17.279Z,41.6
2023-04-07T14:48:35.515Z,42.4
2023-04-07T14:53:59.710Z,42.1
2023-04-07T14:59:17.942Z,42.2
2023-04-07T15:04:36.749Z,43.3
2023-04-07T15:09:55.410Z,42.5
2023-04-07T15:15:13.413Z,43.1
2023-04-07T15:20:33.083Z,43.5
2023-04-07T15:25:51.480Z,42.6
2023-04-07T15:31:10.147Z,43.2
2023-04-07T15:36:28.427Z,43.1
2023-04-07T15:41:53.615Z,42.6
2023-04-07T15:46:56.339Z,42.8
2023-04-07T15:52:14.287Z,42.6
2023-04-07T15:57:32.272Z,42.4
2023-04-07T16:02:51.209Z,43.2
2023-04-07T16:08:13.667Z,42.6
2023-04-07T16:13:32.290Z,43.4
2023-04-07T16:18:50.636Z,42.5
2023-04-07T16:24:09.032Z,42.4
2023-04-07T16:29:27.485Z,42.6
2023-04-07T16:34:45.900Z,43.4
2023-04-07T16:40:04.455Z,42.7
2023-04-07T16:45:22.889Z,42.7
2023-04-07T16:50:41.179Z,43.3
2023-04-07T16:55:59.380Z,43.5
2023-04-07T17:01:17.975Z,43
2023-04-07T17:06:36.072Z,43.7
2023-04-07T17:11:54.602Z,43.9
2023-04-07T17:17:13.123Z,43
2023-04-07T17:22:31.533Z,42.7
2023-04-07T17:27:49.921Z,43.4
2023-04-07T17:33:08.499Z,42.8
2023-04-07T17:38:27.225Z,43.8
2023-04-07T17:43:45.851Z,43.6
2023-04-07T17:49:04.070Z,43.3
2023-04-07T17:54:22.315Z,42
2023-04-07T17:59:40.680Z,42.3
2023-04-07T18:04:59.016Z,42.6
2023-04-07T18:10:17.386Z,42.3
2023-04-07T18:15:35.684Z,43
2023-04-07T18:20:54.325Z,43.1
2023-04-07T18:26:13.018Z,42.4
2023-04-07T18:31:31.546Z,43.4
2023-04-07T18:36:49.773Z,43.1
2023-04-07T18:42:08.033Z,42.6
2023-04-07T18:47:26.055Z,43.1
2023-04-07T18:52:44.414Z,43.3
2023-04-07T18:58:03.005Z,43.4
2023-04-07T19:03:21.920Z,43.5
2023-04-07T19:08:40.378Z,43.6
2023-04-07T19:13:58.828Z,43.6
2023-04-07T19:19:17.171Z,42.6
2023-04-07T19:24:35.526Z,43.4
2023-04-07T19:29:54.486Z,43.8
2023-04-07T19:35:12.664Z,43
2023-04-07T19:40:33.787Z,43.5
2023-04-07T19:45:51.988Z,43.7
2023-04-07T19:51:10.201Z,43.7
2023-04-07T19:56:28.578Z,43.1
2023-04-07T20:01:48.532Z,43.4
2023-04-07T20:07:07.440Z,43.5
2023-04-07T20:12:25.622Z,43.6
2023-04-07T20:17:45.227Z,44.6
2023-04-07T20:22:48.210Z,44
2023-04-07T20:28:06.356Z,44.3
2023-04-07T20:33:24.764Z,44.7
2023-04-07T20:38:42.888Z,44.6
2023-04-07T20:44:01.100Z,44.7
2023-04-07T20:49:19.171Z,44.5
2023-04-07T20:54:37.300Z,44.3
2023-04-07T20:59:55.474Z,45.2
2023-04-07T21:05:13.690Z,44
2023-04-07T21:10:32.079Z,44.4
2023-04-07T21:15:50.119Z,45.1
2023-04-07T21:21:08.240Z,45.4
2023-04-07T21:26:26.500Z,44.5
2023-04-07T21:31:45.055Z,45.5
2023-04-07T21:37:03.689Z,45.5
2023-04-07T21:42:21.613Z,45
2023-04-07T21:47:39.931Z,44.9
2023-04-07T21:52:58.368Z,44.9
2023-04-07T21:58:16.573Z,45.6
2023-04-07T22:03:36.097Z,45.2
2023-04-07T22:09:02.926Z,45.6
2023-04-07T22:14:21.337Z,45.9
2023-04-07T22:19:39.673Z,45.8
2023-04-07T22:24:57.890Z,45.6
2023-04-07T22:30:16.193Z,45.5
2023-04-07T22:35:34.446Z,44.9
2023-04-07T22:40:52.687Z,44.8
2023-04-07T22:46:11.022Z,45.8
2023-04-07T22:51:28.943Z,45.7
2023-04-07T22:56:47.178Z,45.2
2023-04-07T23:02:05.514Z,45.8
2023-04-07T23:07:23.929Z,45
2023-04-07T23:12:42.331Z,45.4
2023-04-07T23:18:00.617Z,45.2
2023-04-07T23:23:18.802Z,45.4
2023-04-07T23:28:37.224Z,45
2023-04-07T23:33:55.214Z,45.1
2023-04-07T23:39:13.582Z,45.4
2023-04-07T23:44:31.628Z,45.1
2023-04-07T23:49:50.004Z,45.3
2023-04-07T23:55:08.317Z,45
